Time;durP1;ratioP1;P1;durP2;ratioP2;P2;SDS_P1;SDS_P2;PMS_P1;PMS_P2;Temp;Humidity;BMP_temperature;BMP_pressure;BME280_temperature;BME280_humidity;BME280_pressure;Samples;Min_cycle;Max_cycle;Signal;HPM_P1;HPM_P2
2023/10/20 00:00:42;;;;;;;2.85;2.65;;;;;;;;;;5092990;28;20278;-86
2023/10/20 00:03:09;;;;;;;3.22;2.92;;;;;;;;;;5092833;28;20200;-87
2023/10/20 00:05:37;;;;;;;3.10;2.80;;;;;;;;;;5093599;28;20692;-88
2023/10/20 00:08:05;;;;;;;2.70;2.50;;;;;;;;;;5092777;28;20200;-87
2023/10/20 00:10:35;;;;;;;3.58;3.28;;;;;;;;;;5093105;28;20258;-87
2023/10/20 00:13:05;;;;;;;4.45;3.88;;;;;;;;;;5077082;28;20265;-87
2023/10/20 00:15:33;;;;;;;3.15;2.90;;;;;;;;;;5092682;28;20207;-88
2023/10/20 00:18:01;;;;;;;3.30;3.05;;;;;;;;;;5093240;28;20214;-87
2023/10/20 00:20:29;;;;;;;3.58;3.38;;;;;;;;;;5093313;28;20289;-88
2023/10/20 00:22:56;;;;;;;3.95;3.65;;;;;;;;;;5094318;28;20338;-87
2023/10/20 00:25:24;;;;;;;3.22;2.92;;;;;;;;;;5097242;28;20227;-87
2023/10/20 00:27:52;;;;;;;4.85;4.45;;;;;;;;;;5097875;28;20352;-88
2023/10/20 00:30:21;;;;;;;4.00;3.70;;;;;;;;;;5099856;28;20641;-87
2023/10/20 00:32:48;;;;;;;3.65;3.35;;;;;;;;;;5096758;28;20207;-87
2023/10/20 00:35:16;;;;;;;4.10;3.80;;;;;;;;;;5096833;28;20227;-88
2023/10/20 00:37:43;;;;;;;3.83;3.53;;;;;;;;;;5096279;28;20206;-87
2023/10/20 00:40:13;;;;;;;3.50;3.20;;;;;;;;;;5096215;28;20652;-88
2023/10/20 00:42:40;;;;;;;4.07;3.75;;;;;;;;;;5088371;28;20198;-88
2023/10/20 00:45:10;;;;;;;3.70;3.40;;;;;;;;;;5096665;28;20867;-88
2023/10/20 00:47:41;;;;;;;5.00;4.60;;;;;;;;;;5096910;28;20208;-88
2023/10/20 00:50:11;;;;;;;3.88;3.58;;;;;;;;;;5096586;28;20196;-87
2023/10/20 00:52:40;;;;;;;4.05;3.75;;;;;;;;;;5096666;28;20570;-87
2023/10/20 00:55:09;;;;;;;3.85;3.55;;;;;;;;;;5096356;28;20785;-88
2023/10/20 00:57:37;;;;;;;5.43;4.55;;;;;;;;;;5096525;28;20688;-88
2023/10/20 01:00:04;;;;;;;5.35;4.90;;;;;;;;;;5096435;28;20634;-87
2023/10/20 01:02:32;;;;;;;3.50;3.20;;;;;;;;;;5095922;28;20287;-87
2023/10/20 01:05:01;;;;;;;4.32;3.58;;;;;;;;;;5095571;28;20243;-88
2023/10/20 01:07:28;;;;;;;5.00;4.45;;;;;;;;;;5095926;28;20283;-86
2023/10/20 01:10:02;;;;;;;5.05;4.65;;;;;;;;;;5096318;28;20283;-88
2023/10/20 01:12:30;;;;;;;4.85;4.45;;;;;;;;;;5084728;28;20213;-87
2023/10/20 01:14:58;;;;;;;4.43;4.13;;;;;;;;;;5075655;28;20252;-87
2023/10/20 01:17:26;;;;;;;4.78;3.78;;;;;;;;;;5075457;28;20193;-88
2023/10/20 01:19:53;;;;;;;6.00;5.40;;;;;;;;;;5075933;28;20288;-88
2023/10/20 01:22:22;;;;;;;4.78;4.38;;;;;;;;;;5075347;28;20221;-87
2023/10/20 01:24:51;;;;;;;6.15;5.65;;;;;;;;;;5074883;28;20221;-88
2023/10/20 01:27:19;;;;;;;6.68;6.05;;;;;;;;;;5075386;28;20228;-87
2023/10/20 01:29:47;;;;;;;5.22;4.72;;;;;;;;;;5075583;28;20280;-89
2023/10/20 01:32:14;;;;;;;5.03;4.53;;;;;;;;;;5079886;28;20224;-87
2023/10/20 01:34:42;;;;;;;7.47;6.75;;;;;;;;;;5081635;28;20201;-87
2023/10/20 01:37:11;;;;;;;6.60;6.00;;;;;;;;;;5098026;28;20319;-86
2023/10/20 01:39:39;;;;;;;4.75;4.35;;;;;;;;;;5098548;28;20219;-87
2023/10/20 01:42:08;;;;;;;4.70;4.30;;;;;;;;;;5100523;28;20248;-88
2023/10/20 01:44:35;;;;;;;4.60;4.20;;;;;;;;;;5095747;28;20228;-87
2023/10/20 01:47:04;;;;;;;3.60;3.30;;;;;;;;;;5095721;28;20251;-87
2023/10/20 01:49:31;;;;;;;4.15;3.80;;;;;;;;;;5095471;28;20203;-86
2023/10/20 01:51:59;;;;;;;4.13;3.72;;;;;;;;;;5095273;28;20287;-88
2023/10/20 01:54:26;;;;;;;4.88;3.30;;;;;;;;;;5095140;28;20227;-88
2023/10/20 01:56:54;;;;;;;3.85;3.55;;;;;;;;;;5094969;28;20207;-87
2023/10/20 01:59:23;;;;;;;4.90;4.50;;;;;;;;;;5095035;28;20341;-87
2023/10/20 02:01:51;;;;;;;3.38;3.17;;;;;;;;;;5095018;28;20645;-87
2023/10/20 02:04:18;;;;;;;3.20;3.00;;;;;;;;;;5093634;28;20216;-86
2023/10/20 02:06:47;;;;;;;4.10;3.80;;;;;;;;;;5094778;28;20227;-86
2023/10/20 02:09:14;;;;;;;4.05;3.75;;;;;;;;;;5093963;28;20204;-87
2023/10/20 02:11:42;;;;;;;4.65;4.18;;;;;;;;;;5093466;28;20204;-86
2023/10/20 02:14:09;;;;;;;3.75;3.45;;;;;;;;;;5095579;28;20258;-88
2023/10/20 02:16:38;;;;;;;4.03;3.72;;;;;;;;;;5093918;28;20656;-87
2023/10/20 02:19:05;;;;;;;3.53;3.22;;;;;;;;;;5093654;28;20231;-86
2023/10/20 02:21:33;;;;;;;3.67;3.38;;;;;;;;;;5093779;28;20769;-87
2023/10/20 02:24:00;;;;;;;5.70;5.20;;;;;;;;;;5092661;28;20301;-86
2023/10/20 02:26:29;;;;;;;5.85;5.35;;;;;;;;;;5093874;28;20228;-86
2023/10/20 02:28:57;;;;;;;4.93;4.53;;;;;;;;;;5093448;28;20327;-86
2023/10/20 02:31:24;;;;;;;4.95;4.47;;;;;;;;;;5093676;28;20422;-85
2023/10/20 02:33:53;;;;;;;5.40;4.95;;;;;;;;;;5093126;28;20315;-86
2023/10/20 02:36:22;;;;;;;5.38;4.85;;;;;;;;;;5093271;28;20640;-88
2023/10/20 02:38:52;;;;;;;6.88;6.18;;;;;;;;;;5094104;28;20283;-85
2023/10/20 02:41:20;;;;;;;5.97;5.40;;;;;;;;;;5092152;28;20227;-85
2023/10/20 02:43:48;;;;;;;4.20;3.80;;;;;;;;;;5084131;28;20748;-86
2023/10/20 02:46:16;;;;;;;4.93;4.50;;;;;;;;;;5092871;28;20204;-87
2023/10/20 02:48:44;;;;;;;3.13;2.92;;;;;;;;;;5093473;28;20587;-87
2023/10/20 02:51:15;;;;;;;3.15;2.95;;;;;;;;;;5096957;28;20658;-85
2023/10/20 02:53:43;;;;;;;3.30;3.03;;;;;;;;;;5092647;28;20221;-87
2023/10/20 02:56:14;;;;;;;3.05;2.85;;;;;;;;;;5092644;28;20207;-86
2023/10/20 02:58:43;;;;;;;5.35;4.85;;;;;;;;;;5092510;28;20203;-86
2023/10/20 03:01:11;;;;;;;4.72;4.32;;;;;;;;;;5093028;28;20661;-86
2023/10/20 03:03:38;;;;;;;4.75;4.32;;;;;;;;;;5092458;28;20220;-85
2023/10/20 03:06:07;;;;;;;5.03;4.63;;;;;;;;;;5092755;28;20265;-87
2023/10/20 03:08:38;;;;;;;4.15;3.83;;;;;;;;;;5092579;28;20204;-85
2023/10/20 03:11:05;;;;;;;3.78;3.45;;;;;;;;;;5092638;28;20211;-85
2023/10/20 03:13:33;;;;;;;3.67;3.38;;;;;;;;;;5083344;28;20228;-85
2023/10/20 03:16:01;;;;;;;3.72;3.42;;;;;;;;;;5092965;28;20200;-86
2023/10/20 03:18:29;;;;;;;4.25;3.95;;;;;;;;;;5092613;28;20204;-86
2023/10/20 03:21:01;;;;;;;3.90;3.50;;;;;;;;;;5092746;28;20208;-86
2023/10/20 03:23:29;;;;;;;3.03;2.83;;;;;;;;;;5091543;28;20228;-86
2023/10/20 03:25:58;;;;;;;3.65;3.35;;;;;;;;;;5093141;28;20682;-85
2023/10/20 03:28:26;;;;;;;3.90;3.60;;;;;;;;;;5093000;28;20287;-86
2023/10/20 03:30:54;;;;;;;3.75;3.45;;;;;;;;;;5092377;28;20682;-87
2023/10/20 03:33:21;;;;;;;4.45;4.07;;;;;;;;;;5092045;28;20204;-86
2023/10/20 03:35:48;;;;;;;3.28;2.97;;;;;;;;;;5092719;28;20564;-85
2023/10/20 03:38:16;;;;;;;4.30;3.90;;;;;;;;;;5092706;28;20283;-86
2023/10/20 03:40:46;;;;;;;4.80;4.40;;;;;;;;;;5092239;28;20224;-86
2023/10/20 03:43:16;;;;;;;5.80;5.30;;;;;;;;;;5083247;28;20646;-86
2023/10/20 03:45:48;;;;;;;5.32;4.55;;;;;;;;;;5092798;28;20196;-86
2023/10/20 03:48:16;;;;;;;4.65;4.25;;;;;;;;;;5093060;28;20202;-87
2023/10/20 03:50:46;;;;;;;3.80;3.50;;;;;;;;;;5096743;28;20196;-86
2023/10/20 03:53:18;;;;;;;3.97;3.58;;;;;;;;;;5091798;28;20232;-86
2023/10/20 03:55:45;;;;;;;4.90;4.45;;;;;;;;;;5092193;28;20291;-86
2023/10/20 03:58:14;;;;;;;4.82;4.45;;;;;;;;;;5083734;28;20750;-84
2023/10/20 04:00:42;;;;;;;3.97;3.60;;;;;;;;;;5069623;28;20569;-84
2023/10/20 04:03:10;;;;;;;3.55;3.25;;;;;;;;;;5068197;28;20233;-86
2023/10/20 04:05:38;;;;;;;3.40;3.10;;;;;;;;;;5067812;28;20205;-84
2023/10/20 04:08:07;;;;;;;3.55;3.25;;;;;;;;;;5067663;28;20220;-86
2023/10/20 04:10:34;;;;;;;4.28;3.88;;;;;;;;;;5067641;28;20309;-86
2023/10/20 04:13:02;;;;;;;3.80;3.50;;;;;;;;;;5067821;28;20897;-85
2023/10/20 04:15:35;;;;;;;3.25;2.95;;;;;;;;;;5067974;28;20258;-85
2023/10/20 04:18:04;;;;;;;3.60;3.30;;;;;;;;;;5068665;28;20729;-87
2023/10/20 04:20:31;;;;;;;3.10;2.90;;;;;;;;;;5071638;28;20842;-84
2023/10/20 04:22:59;;;;;;;3.08;2.88;;;;;;;;;;5066718;28;20239;-85
2023/10/20 04:25:33;;;;;;;3.45;3.15;;;;;;;;;;5068500;28;20208;-86
2023/10/20 04:28:11;;;;;;;3.50;3.20;;;;;;;;;;5068423;28;20262;-85
2023/10/20 04:41:58;;;;;;;2.00;1.90;;;;;;;;;;5067645;28;20285;-85
2023/10/20 04:52:55;;;;;;;2.03;1.90;;;;;;;;;;5067965;28;20205;-85
2023/10/20 04:58:24;;;;;;;2.20;2.05;;;;;;;;;;5065872;28;20201;-84
2023/10/20 05:01:03;;;;;;;1.80;1.70;;;;;;;;;;5068614;28;20214;-84
2023/10/20 05:03:44;;;;;;;1.77;1.67;;;;;;;;;;5070706;28;20680;-85
2023/10/20 05:06:22;;;;;;;2.05;1.95;;;;;;;;;;5069456;28;20205;-84
2023/10/20 05:08:51;;;;;;;1.70;1.60;;;;;;;;;;5072368;28;20279;-85
2023/10/20 05:11:19;;;;;;;1.80;1.70;;;;;;;;;;5070009;28;20213;-86
2023/10/20 05:13:46;;;;;;;1.85;1.75;;;;;;;;;;5073011;28;20586;-85
2023/10/20 05:16:14;;;;;;;2.17;2.08;;;;;;;;;;5069953;28;20227;-85
2023/10/20 05:18:44;;;;;;;2.90;2.60;;;;;;;;;;5073206;28;21349;-87
2023/10/20 05:21:13;;;;;;;2.10;2.00;;;;;;;;;;5073111;28;20216;-85
2023/10/20 05:23:41;;;;;;;2.17;2.00;;;;;;;;;;5068807;28;20228;-86
2023/10/20 05:26:10;;;;;;;2.00;1.90;;;;;;;;;;5068685;28;20200;-85
2023/10/20 05:28:38;;;;;;;2.35;2.15;;;;;;;;;;5069423;28;20209;-86
2023/10/20 05:31:05;;;;;;;2.72;2.53;;;;;;;;;;5068915;28;20211;-85
2023/10/20 05:33:33;;;;;;;2.78;2.58;;;;;;;;;;5070579;28;20924;-84
2023/10/20 05:36:06;;;;;;;2.72;2.53;;;;;;;;;;5071054;28;20633;-84
2023/10/20 05:38:33;;;;;;;2.15;2.05;;;;;;;;;;5071660;28;20680;-84
2023/10/20 05:41:01;;;;;;;2.80;2.60;;;;;;;;;;5069140;28;20875;-84
2023/10/20 05:43:30;;;;;;;3.38;2.40;;;;;;;;;;5070518;28;20232;-84
2023/10/20 05:45:57;;;;;;;2.50;2.30;;;;;;;;;;5071800;28;20200;-85
2023/10/20 05:48:25;;;;;;;2.80;2.60;;;;;;;;;;5071358;28;20304;-82
2023/10/20 05:50:57;;;;;;;2.67;2.47;;;;;;;;;;5068598;28;20201;-84
2023/10/20 05:53:26;;;;;;;3.03;2.83;;;;;;;;;;5068341;28;20280;-84
2023/10/20 05:55:54;;;;;;;2.75;2.55;;;;;;;;;;5069566;28;20212;-85
2023/10/20 05:58:22;;;;;;;3.03;2.83;;;;;;;;;;5068906;28;20288;-83
2023/10/20 06:00:49;;;;;;;2.88;2.67;;;;;;;;;;5092123;28;20200;-84
2023/10/20 06:03:18;;;;;;;2.67;2.47;;;;;;;;;;5077109;28;20220;-84
2023/10/20 06:05:45;;;;;;;2.92;2.72;;;;;;;;;;5073894;28;20569;-84
2023/10/20 06:08:13;;;;;;;3.63;2.80;;;;;;;;;;5073338;28;20651;-86
2023/10/20 06:10:44;;;;;;;2.97;2.78;;;;;;;;;;5076124;28;20284;-86
2023/10/20 06:13:13;;;;;;;2.90;2.70;;;;;;;;;;5073920;28;20201;-84
2023/10/20 06:15:41;;;;;;;2.97;2.78;;;;;;;;;;5075359;28;20495;-87
2023/10/20 06:18:09;;;;;;;3.15;2.95;;;;;;;;;;5088978;28;20196;-87
2023/10/20 06:20:40;;;;;;;3.45;2.72;;;;;;;;;;5085859;28;20681;-87
2023/10/20 06:23:08;;;;;;;2.72;2.53;;;;;;;;;;5093869;28;20204;-87
2023/10/20 06:25:36;;;;;;;3.50;3.20;;;;;;;;;;5095200;28;20199;-86
2023/10/20 06:28:06;;;;;;;2.65;2.55;;;;;;;;;;5094577;28;20226;-86
2023/10/20 06:30:40;;;;;;;2.90;2.70;;;;;;;;;;5103504;28;20237;-86
2023/10/20 06:33:16;;;;;;;2.80;2.60;;;;;;;;;;5113136;28;20200;-85
2023/10/20 06:35:50;;;;;;;2.53;2.40;;;;;;;;;;5113853;28;20200;-84
2023/10/20 06:38:23;;;;;;;3.20;2.90;;;;;;;;;;5104127;28;20202;-85
2023/10/20 06:40:51;;;;;;;2.90;2.70;;;;;;;;;;5094523;28;20204;-85
2023/10/20 06:43:20;;;;;;;2.90;2.70;;;;;;;;;;5093771;28;20296;-85
2023/10/20 06:45:57;;;;;;;2.83;2.63;;;;;;;;;;5093931;28;20226;-85
2023/10/20 06:48:24;;;;;;;2.92;2.70;;;;;;;;;;5077234;28;20201;-85
2023/10/20 06:50:52;;;;;;;2.70;2.50;;;;;;;;;;5092958;28;20279;-84
2023/10/20 06:53:19;;;;;;;3.33;3.03;;;;;;;;;;5093386;28;20649;-87
2023/10/20 06:55:48;;;;;;;4.15;3.45;;;;;;;;;;5093790;28;20239;-88
2023/10/20 06:58:17;;;;;;;3.55;3.17;;;;;;;;;;5093495;28;20269;-86
2023/10/20 07:00:46;;;;;;;3.63;3.33;;;;;;;;;;5093044;28;20204;-86
2023/10/20 07:03:14;;;;;;;3.80;3.50;;;;;;;;;;5092936;28;20215;-88
2023/10/20 07:05:42;;;;;;;2.72;2.30;;;;;;;;;;5093612;28;20216;-87
2023/10/20 07:08:13;;;;;;;4.00;3.67;;;;;;;;;;5093392;28;20234;-86
2023/10/20 07:10:41;;;;;;;3.58;3.25;;;;;;;;;;5093885;28;20204;-87
2023/10/20 07:13:11;;;;;;;2.88;2.67;;;;;;;;;;5093089;28;20200;-88
2023/10/20 07:15:40;;;;;;;2.90;2.47;;;;;;;;;;5093263;28;20196;-86
2023/10/20 07:18:11;;;;;;;2.85;2.55;;;;;;;;;;5092740;28;20200;-88
2023/10/20 07:20:39;;;;;;;3.33;3.03;;;;;;;;;;5092987;28;20204;-87
2023/10/20 07:23:07;;;;;;;4.25;3.95;;;;;;;;;;5092077;28;20200;-85
2023/10/20 07:25:34;;;;;;;4.38;3.95;;;;;;;;;;5092646;28;20316;-87
2023/10/20 07:28:03;;;;;;;3.97;3.63;;;;;;;;;;5096654;28;20196;-87
2023/10/20 07:30:31;;;;;;;3.67;3.30;;;;;;;;;;5092970;28;20200;-85
2023/10/20 07:32:58;;;;;;;3.58;3.25;;;;;;;;;;5092124;28;20196;-86
2023/10/20 07:35:27;;;;;;;4.45;4.15;;;;;;;;;;5092788;28;20216;-87
2023/10/20 07:37:55;;;;;;;3.30;3.00;;;;;;;;;;5093069;28;20205;-86
2023/10/20 07:40:26;;;;;;;3.10;2.90;;;;;;;;;;5092190;28;20650;-86
2023/10/20 07:42:54;;;;;;;3.10;2.90;;;;;;;;;;5093192;28;20204;-86
2023/10/20 07:45:22;;;;;;;3.85;3.55;;;;;;;;;;5092628;28;20334;-87
2023/10/20 07:47:49;;;;;;;3.47;3.17;;;;;;;;;;5087615;28;20283;-88
2023/10/20 07:50:17;;;;;;;4.32;3.92;;;;;;;;;;5087947;28;20333;-85
2023/10/20 07:52:46;;;;;;;3.13;2.83;;;;;;;;;;5092623;28;20200;-85
2023/10/20 07:55:14;;;;;;;4.10;3.65;;;;;;;;;;5091806;28;20723;-85
2023/10/20 07:57:42;;;;;;;3.33;3.03;;;;;;;;;;5091826;28;20282;-86
2023/10/20 08:00:13;;;;;;;3.97;3.67;;;;;;;;;;5091823;28;20204;-86
2023/10/20 08:02:41;;;;;;;3.97;3.67;;;;;;;;;;5092019;28;20299;-86
2023/10/20 08:05:10;;;;;;;4.03;3.65;;;;;;;;;;5091796;28;20289;-85
2023/10/20 08:07:39;;;;;;;3.67;3.38;;;;;;;;;;5092190;28;20661;-86
2023/10/20 08:10:09;;;;;;;3.10;2.80;;;;;;;;;;5092112;28;20196;-86
2023/10/20 08:12:37;;;;;;;3.22;3.03;;;;;;;;;;5091737;28;20208;-86
2023/10/20 08:15:05;;;;;;;3.35;3.05;;;;;;;;;;5091288;28;20212;-85
2023/10/20 08:17:33;;;;;;;3.30;3.05;;;;;;;;;;5089495;28;20210;-84
2023/10/20 08:20:00;;;;;;;3.30;3.00;;;;;;;;;;5085383;28;20196;-87
2023/10/20 08:22:28;;;;;;;3.92;3.63;;;;;;;;;;5091550;28;20230;-85
2023/10/20 08:24:55;;;;;;;3.70;3.40;;;;;;;;;;5090649;28;20669;-85
2023/10/20 08:27:24;;;;;;;3.85;3.55;;;;;;;;;;5091480;28;20681;-86
2023/10/20 08:29:55;;;;;;;3.65;3.20;;;;;;;;;;5091862;28;20196;-85
2023/10/20 08:32:22;;;;;;;3.45;3.25;;;;;;;;;;5091877;28;20231;-85
2023/10/20 08:34:50;;;;;;;3.40;3.10;;;;;;;;;;5092110;28;20223;-85
2023/10/20 08:37:18;;;;;;;3.05;2.75;;;;;;;;;;5091567;28;20232;-84
2023/10/20 08:39:45;;;;;;;3.10;2.80;;;;;;;;;;5091813;28;20580;-85
2023/10/20 08:42:17;;;;;;;3.78;3.47;;;;;;;;;;5091465;28;20339;-85
2023/10/20 08:44:48;;;;;;;3.20;2.90;;;;;;;;;;5094491;28;20708;-85
2023/10/20 08:47:17;;;;;;;2.83;2.60;;;;;;;;;;5095065;28;20196;-84
2023/10/20 08:49:46;;;;;;;3.65;3.35;;;;;;;;;;5086500;28;20199;-84
2023/10/20 08:52:14;;;;;;;3.67;3.38;;;;;;;;;;5095283;28;20245;-84
2023/10/20 08:54:42;;;;;;;3.67;3.38;;;;;;;;;;5094730;28;20230;-85
2023/10/20 08:57:09;;;;;;;2.70;2.50;;;;;;;;;;5095443;28;20226;-85
2023/10/20 08:59:36;;;;;;;3.03;2.70;;;;;;;;;;5095110;28;20238;-85
2023/10/20 09:02:07;;;;;;;3.05;2.85;;;;;;;;;;5095200;28;20196;-86
2023/10/20 09:04:34;;;;;;;3.03;2.83;;;;;;;;;;5094947;28;20582;-86
2023/10/20 09:07:03;;;;;;;3.60;3.10;;;;;;;;;;5094683;28;20243;-85
2023/10/20 09:09:30;;;;;;;3.45;3.15;;;;;;;;;;5092778;28;20226;-87
2023/10/20 09:11:58;;;;;;;2.90;2.70;;;;;;;;;;5095416;28;20298;-85
2023/10/20 09:14:27;;;;;;;3.33;3.13;;;;;;;;;;5094379;28;20216;-85
2023/10/20 09:16:57;;;;;;;2.67;2.47;;;;;;;;;;5094299;28;20207;-86
2023/10/20 09:19:26;;;;;;;3.33;3.13;;;;;;;;;;5094405;28;20227;-85
2023/10/20 09:21:57;;;;;;;3.38;3.13;;;;;;;;;;5094660;28;20311;-85
2023/10/20 09:24:30;;;;;;;3.72;3.42;;;;;;;;;;5094045;28;20224;-85
2023/10/20 09:26:59;;;;;;;2.92;2.72;;;;;;;;;;5094432;28;20717;-84
2023/10/20 09:29:30;;;;;;;2.70;2.50;;;;;;;;;;5095046;28;20659;-85
2023/10/20 09:31:59;;;;;;;4.43;3.88;;;;;;;;;;5095018;28;20211;-84
2023/10/20 09:34:28;;;;;;;3.35;3.05;;;;;;;;;;5094135;28;20705;-85
2023/10/20 09:36:57;;;;;;;5.43;4.00;;;;;;;;;;5094704;28;20228;-86
2023/10/20 09:39:34;;;;;;;2.78;2.58;;;;;;;;;;5094166;28;20570;-85
2023/10/20 09:42:04;;;;;;;3.67;3.38;;;;;;;;;;5093890;28;20239;-86
2023/10/20 09:44:39;;;;;;;3.97;3.67;;;;;;;;;;5094077;28;20226;-86
2023/10/20 09:47:16;;;;;;;3.65;3.35;;;;;;;;;;5094327;28;20231;-87
2023/10/20 09:49:45;;;;;;;3.90;3.60;;;;;;;;;;5088546;28;20207;-86
2023/10/20 09:52:13;;;;;;;3.95;3.58;;;;;;;;;;5094323;28;20200;-86
2023/10/20 09:54:40;;;;;;;3.97;3.67;;;;;;;;;;5093232;28;20258;-85
2023/10/20 09:57:08;;;;;;;6.18;4.10;;;;;;;;;;5094651;28;20207;-87
2023/10/20 09:59:39;;;;;;;4.00;3.67;;;;;;;;;;5094142;28;20286;-87
2023/10/20 10:02:07;;;;;;;3.42;2.90;;;;;;;;;;5094362;28;20583;-86
2023/10/20 10:04:38;;;;;;;3.63;3.30;;;;;;;;;;5093703;28;20311;-85
2023/10/20 10:07:08;;;;;;;3.25;2.95;;;;;;;;;;5093673;28;20315;-85
2023/10/20 10:09:40;;;;;;;3.63;3.30;;;;;;;;;;5094114;28;20212;-85
2023/10/20 10:12:14;;;;;;;3.92;3.55;;;;;;;;;;5093994;28;20211;-86
2023/10/20 10:14:41;;;;;;;3.80;3.38;;;;;;;;;;5094112;28;20217;-85
2023/10/20 10:17:10;;;;;;;3.63;3.33;;;;;;;;;;5093334;28;20204;-85
2023/10/20 10:19:50;;;;;;;3.33;3.03;;;;;;;;;;5084719;28;20208;-85
2023/10/20 10:22:26;;;;;;;3.50;3.15;;;;;;;;;;5093709;28;20551;-85
2023/10/20 10:24:55;;;;;;;4.05;3.67;;;;;;;;;;5092907;28;20224;-85
2023/10/20 10:27:26;;;;;;;4.50;4.10;;;;;;;;;;5093465;28;20220;-86
2023/10/20 10:29:57;;;;;;;3.25;3.00;;;;;;;;;;5093902;28;20249;-85
2023/10/20 10:32:27;;;;;;;5.00;3.58;;;;;;;;;;5093480;28;20577;-85
2023/10/20 10:34:55;;;;;;;4.70;3.83;;;;;;;;;;5093222;28;20213;-85
2023/10/20 10:37:32;;;;;;;3.40;3.10;;;;;;;;;;5096983;28;20287;-85
2023/10/20 10:40:12;;;;;;;3.92;3.53;;;;;;;;;;5092840;28;20210;-85
2023/10/20 10:42:45;;;;;;;4.07;3.78;;;;;;;;;;5093076;28;20204;-84
2023/10/20 10:45:18;;;;;;;4.32;3.08;;;;;;;;;;5093012;28;20230;-85
2023/10/20 10:47:46;;;;;;;4.57;4.18;;;;;;;;;;5084589;28;20216;-85
2023/10/20 10:50:15;;;;;;;3.10;2.80;;;;;;;;;;5092859;28;20211;-85
2023/10/20 10:52:44;;;;;;;3.05;2.80;;;;;;;;;;5092901;28;20200;-86
2023/10/20 10:55:11;;;;;;;3.38;3.08;;;;;;;;;;5092432;28;20220;-85
2023/10/20 10:57:39;;;;;;;3.67;3.33;;;;;;;;;;5092670;28;20757;-86
2023/10/20 11:00:09;;;;;;;3.00;2.80;;;;;;;;;;5092938;28;20291;-86
2023/10/20 11:02:37;;;;;;;3.33;2.17;;;;;;;;;;5092871;28;20200;-84
2023/10/20 11:05:05;;;;;;;3.30;3.05;;;;;;;;;;5092906;28;20216;-86
2023/10/20 11:07:32;;;;;;;2.92;2.67;;;;;;;;;;5094653;28;20310;-85
2023/10/20 11:10:03;;;;;;;3.25;2.95;;;;;;;;;;5092399;28;20301;-85
2023/10/20 11:12:30;;;;;;;3.80;3.00;;;;;;;;;;5092699;28;20204;-86
2023/10/20 11:15:00;;;;;;;3.45;3.15;;;;;;;;;;5092260;28;20701;-85
2023/10/20 11:17:28;;;;;;;3.38;3.10;;;;;;;;;;5091323;28;20678;-86
2023/10/20 11:19:56;;;;;;;3.05;2.85;;;;;;;;;;5085278;28;20652;-86
2023/10/20 11:22:24;;;;;;;3.55;2.90;;;;;;;;;;5092525;28;20567;-86
2023/10/20 11:24:53;;;;;;;3.28;3.00;;;;;;;;;;5093940;28;20259;-85
2023/10/20 11:27:22;;;;;;;3.60;3.33;;;;;;;;;;5103637;28;20219;-86
2023/10/20 11:29:49;;;;;;;3.03;2.83;;;;;;;;;;5101584;28;20234;-86
2023/10/20 11:32:18;;;;;;;3.22;2.92;;;;;;;;;;5099168;28;20200;-86
2023/10/20 11:34:46;;;;;;;3.20;2.90;;;;;;;;;;5094689;28;20220;-86
2023/10/20 11:37:15;;;;;;;3.95;3.60;;;;;;;;;;5092976;28;20196;-86
2023/10/20 11:39:42;;;;;;;3.22;3.03;;;;;;;;;;5093486;28;20202;-86
2023/10/20 11:42:11;;;;;;;3.20;2.90;;;;;;;;;;5093309;28;20296;-88
2023/10/20 11:44:40;;;;;;;2.72;2.53;;;;;;;;;;5093040;28;20233;-86
2023/10/20 11:47:07;;;;;;;2.90;2.60;;;;;;;;;;5090491;28;20228;-86
2023/10/20 11:49:35;;;;;;;2.83;2.63;;;;;;;;;;5083130;28;20709;-87
2023/10/20 11:52:07;;;;;;;3.42;3.13;;;;;;;;;;5092681;28;20669;-86
2023/10/20 11:54:34;;;;;;;2.60;2.40;;;;;;;;;;5095359;28;20306;-86
2023/10/20 11:57:02;;;;;;;3.13;2.83;;;;;;;;;;5093448;28;20253;-87
2023/10/20 11:59:29;;;;;;;3.25;3.00;;;;;;;;;;5093015;28;20265;-86
2023/10/20 12:01:59;;;;;;;3.03;2.80;;;;;;;;;;5093346;28;20566;-87
2023/10/20 12:04:26;;;;;;;3.00;2.72;;;;;;;;;;5092673;28;20310;-86
2023/10/20 12:06:54;;;;;;;3.50;3.20;;;;;;;;;;5092811;28;20220;-87
2023/10/20 12:09:22;;;;;;;3.63;3.33;;;;;;;;;;5093349;28;20287;-87
2023/10/20 12:11:52;;;;;;;3.22;3.03;;;;;;;;;;5093400;28;20234;-86
2023/10/20 12:14:19;;;;;;;3.53;3.22;;;;;;;;;;5093295;28;20749;-87
2023/10/20 12:16:46;;;;;;;3.30;3.00;;;;;;;;;;5091196;28;20231;-86
2023/10/20 12:19:17;;;;;;;3.22;2.92;;;;;;;;;;5091146;28;20586;-88
2023/10/20 12:21:44;;;;;;;3.40;2.80;;;;;;;;;;5096866;28;20291;-86
2023/10/20 12:24:12;;;;;;;2.40;2.20;;;;;;;;;;5096856;28;20251;-87
2023/10/20 12:26:39;;;;;;;2.90;2.70;;;;;;;;;;5097578;28;20279;-88
2023/10/20 12:29:07;;;;;;;3.97;3.67;;;;;;;;;;5097115;28;20243;-86
2023/10/20 12:31:34;;;;;;;3.67;3.33;;;;;;;;;;5097338;28;20200;-85
2023/10/20 12:34:03;;;;;;;3.72;3.42;;;;;;;;;;5096937;28;20224;-86
2023/10/20 12:36:33;;;;;;;3.17;2.78;;;;;;;;;;5096891;28;20231;-88
2023/10/20 12:39:01;;;;;;;3.67;3.38;;;;;;;;;;5096466;28;20678;-87
2023/10/20 12:41:28;;;;;;;3.83;3.53;;;;;;;;;;5097021;28;20237;-87
2023/10/20 12:43:56;;;;;;;4.45;3.22;;;;;;;;;;5096581;28;20756;-87
2023/10/20 12:46:24;;;;;;;3.45;3.15;;;;;;;;;;5095913;28;20291;-86
2023/10/20 12:48:51;;;;;;;4.03;3.72;;;;;;;;;;5095630;28;20303;-86
2023/10/20 12:51:19;;;;;;;3.38;3.15;;;;;;;;;;5096049;28;20613;-86
2023/10/20 12:53:48;;;;;;;4.85;4.45;;;;;;;;;;5096588;28;20319;-87
2023/10/20 12:56:15;;;;;;;4.53;4.10;;;;;;;;;;5095991;28;20201;-86
2023/10/20 12:58:42;;;;;;;3.55;3.25;;;;;;;;;;5095958;28;20193;-87
2023/10/20 13:01:10;;;;;;;4.35;3.97;;;;;;;;;;5096214;28;20246;-87
2023/10/20 13:03:37;;;;;;;3.60;3.30;;;;;;;;;;5095986;28;20788;-87
2023/10/20 13:06:06;;;;;;;4.05;3.35;;;;;;;;;;5095258;28;20206;-86
2023/10/20 13:08:34;;;;;;;4.47;4.07;;;;;;;;;;5096057;28;20311;-87
2023/10/20 13:11:03;;;;;;;4.47;4.07;;;;;;;;;;5095836;28;20210;-87
2023/10/20 13:13:32;;;;;;;4.25;3.85;;;;;;;;;;5095543;28;20247;-86
2023/10/20 13:16:02;;;;;;;4.03;3.72;;;;;;;;;;5096171;28;20201;-87
2023/10/20 13:18:29;;;;;;;5.00;4.60;;;;;;;;;;5087588;28;20205;-86
2023/10/20 13:20:57;;;;;;;4.40;4.00;;;;;;;;;;5095669;28;20638;-86
2023/10/20 13:23:24;;;;;;;4.60;4.20;;;;;;;;;;5095632;28;20299;-86
2023/10/20 13:26:04;;;;;;;5.57;5.07;;;;;;;;;;5096470;28;20202;-88
2023/10/20 13:28:31;;;;;;;5.47;4.97;;;;;;;;;;5096319;28;20219;-86
2023/10/20 13:31:06;;;;;;;6.00;5.40;;;;;;;;;;5094469;28;20651;-87
2023/10/20 13:33:34;;;;;;;6.20;5.60;;;;;;;;;;5095608;28;20216;-87
2023/10/20 13:36:04;;;;;;;6.68;5.55;;;;;;;;;;5096063;28;20200;-86
2023/10/20 13:38:32;;;;;;;6.75;6.20;;;;;;;;;;5095670;28;20219;-88
2023/10/20 13:40:59;;;;;;;5.22;4.72;;;;;;;;;;5098927;28;20723;-85
2023/10/20 13:43:28;;;;;;;5.78;5.18;;;;;;;;;;5094786;28;20729;-86
2023/10/20 13:45:56;;;;;;;7.47;6.78;;;;;;;;;;5094497;28;20708;-86
2023/10/20 13:48:24;;;;;;;6.28;5.68;;;;;;;;;;5086382;28;20220;-86
2023/10/20 13:50:52;;;;;;;5.65;5.15;;;;;;;;;;5082923;28;20606;-88
2023/10/20 13:53:19;;;;;;;5.32;4.82;;;;;;;;;;5074383;28;20231;-87
2023/10/20 13:55:47;;;;;;;6.43;5.78;;;;;;;;;;5074364;28;20203;-87
2023/10/20 13:58:17;;;;;;;6.38;5.88;;;;;;;;;;5075375;28;20193;-86
2023/10/20 14:00:46;;;;;;;6.97;6.28;;;;;;;;;;5074302;28;20200;-86
2023/10/20 14:03:14;;;;;;;6.78;6.03;;;;;;;;;;5073522;28;20721;-86
2023/10/20 14:05:41;;;;;;;8.32;6.63;;;;;;;;;;5074599;28;20193;-86
2023/10/20 14:08:11;;;;;;;8.40;6.40;;;;;;;;;;5073435;28;20231;-88
2023/10/20 14:10:39;;;;;;;8.15;6.78;;;;;;;;;;5076192;28;20600;-87
2023/10/20 14:13:06;;;;;;;6.63;6.03;;;;;;;;;;5075187;28;20584;-88
2023/10/20 14:15:34;;;;;;;6.45;5.85;;;;;;;;;;5074805;28;20228;-89
2023/10/20 14:18:03;;;;;;;6.93;6.32;;;;;;;;;;5087141;28;20197;-87
2023/10/20 14:20:31;;;;;;;7.32;6.70;;;;;;;;;;5094638;28;20203;-87
2023/10/20 14:22:59;;;;;;;7.20;6.38;;;;;;;;;;5093743;28;20201;-87
2023/10/20 14:25:26;;;;;;;7.07;6.47;;;;;;;;;;5094373;28;20226;-85
2023/10/20 14:27:54;;;;;;;8.30;7.22;;;;;;;;;;5094375;28;20296;-88
2023/10/20 14:30:21;;;;;;;8.65;6.60;;;;;;;;;;5093930;28;20290;-87
2023/10/20 14:32:49;;;;;;;8.55;7.40;;;;;;;;;;5093711;28;20214;-86
2023/10/20 14:35:18;;;;;;;7.65;6.85;;;;;;;;;;5092940;28;20251;-86
2023/10/20 14:37:46;;;;;;;7.88;6.97;;;;;;;;;;5093480;28;20736;-87
2023/10/20 14:40:14;;;;;;;8.82;7.43;;;;;;;;;;5093559;28;20205;-88
2023/10/20 14:42:41;;;;;;;8.70;7.72;;;;;;;;;;5093349;28;20293;-86
2023/10/20 14:45:10;;;;;;;8.18;7.40;;;;;;;;;;5093156;28;20743;-87
2023/10/20 14:47:37;;;;;;;7.90;7.05;;;;;;;;;;5084768;28;20292;-87
2023/10/20 14:50:06;;;;;;;7.97;7.18;;;;;;;;;;5092601;28;20711;-86
2023/10/20 14:52:35;;;;;;;8.55;7.75;;;;;;;;;;5092866;28;20283;-86
2023/10/20 14:55:03;;;;;;;7.57;6.78;;;;;;;;;;5092913;28;20311;-85
2023/10/20 14:57:30;;;;;;;7.65;6.85;;;;;;;;;;5092986;28;20209;-86
2023/10/20 14:59:58;;;;;;;7.60;6.80;;;;;;;;;;5092838;28;20227;-86
2023/10/20 15:02:26;;;;;;;7.68;6.80;;;;;;;;;;5092965;28;20283;-85
2023/10/20 15:04:54;;;;;;;8.15;7.15;;;;;;;;;;5092232;28;20255;-87
2023/10/20 15:07:21;;;;;;;7.25;6.20;;;;;;;;;;5092628;28;20239;-85
2023/10/20 15:09:50;;;;;;;7.35;6.22;;;;;;;;;;5092705;28;20224;-84
2023/10/20 15:12:17;;;;;;;7.50;6.78;;;;;;;;;;5092637;28;20752;-85
2023/10/20 15:14:45;;;;;;;7.88;7.18;;;;;;;;;;5092133;28;20607;-85